Time;durP1;ratioP1;P1;durP2;ratioP2;P2;SDS_P1;SDS_P2;PMS_P1;PMS_P2;Temp;Humidity;BMP_temperature;BMP_pressure;BME280_temperature;BME280_humidity;BME280_pressure;Samples;Min_cycle;Max_cycle;Signal;HPM_P1;HPM_P2
2022/08/25 00:02:15;;;;;;;4.55;2.13;;;;;;;22.60;58.42;101688.50;6226929;28;20041;-79
2022/08/25 00:05:16;;;;;;;6.07;1.95;;;;;;;22.56;59.02;101683.56;6227455;28;20054;-79
2022/08/25 00:08:17;;;;;;;5.22;1.73;;;;;;;22.50;59.13;101685.78;6227395;28;20517;-79
2022/08/25 00:11:22;;;;;;;3.47;1.83;;;;;;;22.46;59.49;101684.38;6227355;28;20485;-79
2022/08/25 00:14:26;;;;;;;2.88;2.00;;;;;;;22.44;59.44;101685.50;6227305;28;20383;-79
2022/08/25 00:17:27;;;;;;;4.80;1.98;;;;;;;22.37;59.91;101681.66;6227588;28;20053;-79
2022/08/25 00:20:29;;;;;;;5.53;2.25;;;;;;;22.36;59.73;101678.13;6226927;28;20050;-79
2022/08/25 00:23:31;;;;;;;4.50;2.08;;;;;;;22.27;60.14;101678.94;6226768;28;20057;-79
2022/08/25 00:26:33;;;;;;;5.20;1.80;;;;;;;22.25;60.13;101675.53;6226594;28;20050;-79
2022/08/25 00:29:36;;;;;;;7.95;2.20;;;;;;;22.23;60.22;101683.72;6226654;28;20046;-79
2022/08/25 00:32:38;;;;;;;3.88;2.05;;;;;;;22.15;60.82;101685.38;6226668;28;20050;-79
2022/08/25 00:35:41;;;;;;;2.08;1.67;;;;;;;22.12;61.28;101685.63;6226227;28;20060;-79
2022/08/25 00:38:44;;;;;;;4.07;2.35;;;;;;;22.07;61.15;101685.16;6226910;28;20058;-79
2022/08/25 00:41:49;;;;;;;1.92;1.52;;;;;;;22.06;61.40;101678.97;6225648;28;20064;-79
2022/08/25 00:44:50;;;;;;;6.05;2.70;;;;;;;22.02;61.50;101673.03;6226672;28;20050;-79
2022/08/25 00:47:52;;;;;;;7.30;2.22;;;;;;;21.99;61.72;101675.13;6226116;28;20056;-79
2022/08/25 00:50:53;;;;;;;2.78;2.13;;;;;;;21.99;61.98;101675.13;6226256;28;20057;-79
2022/08/25 00:53:55;;;;;;;6.93;2.08;;;;;;;21.94;62.22;101680.03;6225616;28;20046;-79
2022/08/25 00:56:59;;;;;;;3.35;2.22;;;;;;;21.94;62.10;101685.41;6226119;28;20057;-79
2022/08/25 01:00:04;;;;;;;3.03;2.05;;;;;;;21.89;62.47;101682.25;6224925;28;20104;-79
2022/08/25 01:03:06;;;;;;;4.03;2.22;;;;;;;21.87;62.79;101682.38;6226207;28;20052;-79
2022/08/25 01:06:10;;;;;;;2.97;2.05;;;;;;;21.87;62.73;101678.88;6225744;28;20061;-79
2022/08/25 01:09:13;;;;;;;5.70;2.40;;;;;;;21.88;62.70;101683.22;6225768;28;20697;-79
2022/08/25 01:12:16;;;;;;;3.72;2.30;;;;;;;21.86;62.75;101680.69;6225449;28;20532;-79
2022/08/25 01:15:18;;;;;;;6.95;2.42;;;;;;;21.86;63.21;101686.06;6225445;28;20413;-79
2022/08/25 01:18:19;;;;;;;3.47;2.30;;;;;;;21.82;63.44;101676.59;6225688;28;20486;-79
2022/08/25 01:21:25;;;;;;;5.43;3.45;;;;;;;21.75;63.75;101684.28;6225172;28;20046;-79
2022/08/25 01:24:35;;;;;;;3.40;2.17;;;;;;;21.72;64.04;101687.25;6225952;28;20054;-79
2022/08/25 01:27:36;;;;;;;6.57;2.47;;;;;;;21.65;63.95;101685.22;6226234;28;20057;-79
2022/08/25 01:30:38;;;;;;;3.80;2.22;;;;;;;21.58;64.60;101687.56;6226304;28;20054;-79
2022/08/25 01:33:41;;;;;;;3.88;2.33;;;;;;;21.51;65.00;101689.06;6226127;28;20100;-79
2022/08/25 01:36:45;;;;;;;7.20;2.20;;;;;;;21.50;65.10;101690.88;6226786;28;20049;-79
2022/08/25 01:39:46;;;;;;;4.72;2.63;;;;;;;21.48;65.24;101689.31;6226054;28;20058;-79
2022/08/25 01:43:06;;;;;;;4.78;2.55;;;;;;;21.45;65.79;101693.09;6226439;28;20494;-79
2022/08/25 01:46:08;;;;;;;3.05;2.17;;;;;;;21.46;65.45;101685.91;6232755;28;20049;-79
2022/08/25 01:49:09;;;;;;;6.00;2.50;;;;;;;21.43;65.50;101691.53;6230340;28;20052;-79
2022/08/25 01:52:16;;;;;;;3.67;2.78;;;;;;;21.37;65.85;101684.03;6241878;28;20402;-79
2022/08/25 01:55:18;;;;;;;6.32;2.60;;;;;;;21.33;66.06;101685.25;6241931;28;20049;-79
2022/08/25 01:58:20;;;;;;;5.88;2.38;;;;;;;21.29;66.63;101689.97;6228811;28;20399;-79
2022/08/25 02:01:23;;;;;;;5.25;2.72;;;;;;;21.25;66.99;101693.88;6226058;28;20084;-79
2022/08/25 02:04:25;;;;;;;6.93;2.60;;;;;;;21.18;67.33;101690.88;6225180;28;20042;-79
2022/08/25 02:07:28;;;;;;;4.18;2.35;;;;;;;21.17;67.73;101688.34;6225502;28;20562;-79
2022/08/25 02:10:29;;;;;;;5.80;2.80;;;;;;;21.15;68.23;101692.94;6225286;28;20049;-79
2022/08/25 02:13:31;;;;;;;4.63;2.63;;;;;;;21.08;68.83;101689.09;6228728;28;20053;-79
2022/08/25 02:16:36;;;;;;;3.97;2.25;;;;;;;21.00;69.23;101687.91;6234989;28;20046;-79
2022/08/25 02:19:38;;;;;;;4.63;2.53;;;;;;;20.95;69.58;101684.75;6226271;28;20464;-79
2022/08/25 02:22:40;;;;;;;4.75;3.13;;;;;;;20.91;70.33;101686.00;6223662;28;20045;-79
2022/08/25 02:25:42;;;;;;;6.47;2.85;;;;;;;20.91;70.53;101686.00;6225773;28;20058;-79
2022/08/25 02:28:43;;;;;;;5.47;2.85;;;;;;;20.91;70.48;101685.16;6241366;28;20528;-79
2022/08/25 02:31:45;;;;;;;7.03;2.97;;;;;;;20.86;71.18;101688.19;6225258;28;20053;-79
2022/08/25 02:34:48;;;;;;;4.60;2.97;;;;;;;20.82;71.80;101684.06;6232619;28;20573;-80
2022/08/25 02:37:52;;;;;;;4.78;2.67;;;;;;;20.79;72.04;101670.94;6249809;28;20056;-79
2022/08/25 02:40:54;;;;;;;5.22;3.10;;;;;;;20.76;72.45;101679.25;6249556;28;20052;-79
2022/08/25 02:43:55;;;;;;;5.35;3.30;;;;;;;20.75;72.63;101680.19;6249324;28;20053;-79
2022/08/25 02:46:56;;;;;;;9.52;3.53;;;;;;;20.71;73.43;101690.31;6249700;28;20517;-79
2022/08/25 02:49:58;;;;;;;7.55;3.72;;;;;;;20.73;74.26;101682.16;6249580;28;20049;-80
2022/08/25 02:53:00;;;;;;;7.90;3.65;;;;;;;20.72;74.65;101683.13;6249996;28;20045;-79
2022/08/25 02:56:02;;;;;;;6.85;3.33;;;;;;;20.68;75.51;101682.53;6250597;28;20052;-80
2022/08/25 02:59:04;;;;;;;5.28;3.42;;;;;;;20.65;76.15;101687.25;6251535;28;20057;-79
2022/08/25 03:02:05;;;;;;;5.40;3.35;;;;;;;20.65;75.99;101688.09;6249649;28;20069;-79
2022/08/25 03:05:08;;;;;;;5.30;3.20;;;;;;;20.61;77.36;101683.13;6249211;28;20056;-79
2022/08/25 03:08:11;;;;;;;7.07;3.72;;;;;;;20.54;77.63;101682.78;6249597;28;20061;-79
2022/08/25 03:11:13;;;;;;;5.45;3.40;;;;;;;20.53;78.45;101689.13;6249503;28;20053;-79
2022/08/25 03:14:15;;;;;;;6.40;3.55;;;;;;;20.48;78.60;101683.25;6249043;28;20052;-80
2022/08/25 03:17:16;;;;;;;6.28;3.10;;;;;;;20.41;79.36;101685.56;6249810;28;20164;-79
2022/08/25 03:20:18;;;;;;;6.05;3.40;;;;;;;20.38;79.82;101683.13;6249604;28;20077;-80
2022/08/25 03:23:21;;;;;;;6.80;3.60;;;;;;;20.35;80.64;101683.41;6249277;28;20045;-80
2022/08/25 03:29:42;;;;;;;6.20;3.45;;;;;;;20.30;81.57;101688.22;6249696;28;20435;-79
2022/08/25 03:32:43;;;;;;;13.57;4.07;;;;;;;20.24;81.95;101678.88;6250217;28;20479;-79
2022/08/25 03:35:45;;;;;;;6.70;3.55;;;;;;;20.22;82.61;101678.19;6249876;28;20417;-79
2022/08/25 03:38:48;;;;;;;6.05;3.75;;;;;;;20.20;83.01;101688.09;6250235;28;20052;-79
2022/08/25 03:41:50;;;;;;;6.53;3.75;;;;;;;20.17;83.68;101675.03;6249209;28;20386;-80
2022/08/25 03:44:52;;;;;;;11.45;4.22;;;;;;;20.13;84.17;101683.38;6232444;28;20038;-79
2022/08/25 03:47:53;;;;;;;7.32;3.88;;;;;;;20.11;84.20;101683.50;6234895;28;20058;-80
2022/08/25 03:50:55;;;;;;;5.80;3.58;;;;;;;20.08;84.81;101686.41;6238299;28;20130;-79
2022/08/25 03:53:59;;;;;;;6.57;3.80;;;;;;;20.05;85.54;101686.66;6235100;28;20485;-80
2022/08/25 03:57:00;;;;;;;13.40;4.25;;;;;;;20.02;86.19;101686.88;6236866;28;20045;-79
2022/08/25 04:00:03;;;;;;;7.13;4.65;;;;;;;19.97;86.02;101679.25;6236957;28;20065;-80
2022/08/25 04:03:04;;;;;;;6.50;3.35;;;;;;;19.95;86.61;101683.84;6231966;28;20054;-79
2022/08/25 04:06:07;;;;;;;8.40;3.95;;;;;;;19.92;86.76;101676.09;6234002;28;20049;-79
2022/08/25 04:09:11;;;;;;;7.00;3.92;;;;;;;19.90;87.52;101680.69;6235789;28;20037;-79
2022/08/25 04:12:12;;;;;;;7.28;3.90;;;;;;;19.86;87.81;101681.91;6244602;28;20046;-80
2022/08/25 04:15:14;;;;;;;6.78;3.75;;;;;;;19.84;88.24;101683.81;6248276;28;20057;-79
2022/08/25 04:18:15;;;;;;;8.32;4.13;;;;;;;19.84;88.85;101686.50;6248781;28;20046;-79
2022/08/25 04:21:19;;;;;;;7.68;3.80;;;;;;;19.84;89.08;101685.66;6248934;28;20045;-79
2022/08/25 04:24:21;;;;;;;7.50;4.78;;;;;;;19.84;89.40;101681.16;6248676;28;20491;-79
2022/08/25 04:27:22;;;;;;;8.77;3.72;;;;;;;19.83;89.55;101682.13;6249275;28;20489;-79
2022/08/25 04:30:24;;;;;;;6.90;4.57;;;;;;;19.82;89.57;101672.44;6249354;28;20057;-79
2022/08/25 04:33:25;;;;;;;8.10;4.28;;;;;;;19.80;89.72;101673.50;6249434;28;20490;-80
2022/08/25 04:36:26;;;;;;;7.35;4.43;;;;;;;19.75;90.36;101668.53;6253920;28;20060;-79
2022/08/25 04:39:30;;;;;;;7.97;4.18;;;;;;;19.71;90.96;101670.63;6254205;28;20080;-79
2022/08/25 04:42:31;;;;;;;7.47;4.20;;;;;;;19.69;91.68;101666.34;6253734;28;20071;-79
2022/08/25 04:45:36;;;;;;;7.82;4.78;;;;;;;19.65;91.68;101664.88;6253817;28;20045;-80
2022/08/25 04:48:39;;;;;;;7.88;4.57;;;;;;;19.61;92.36;101664.25;6253320;28;20069;-79
2022/08/25 04:51:41;;;;;;;7.25;4.05;;;;;;;19.62;92.72;101665.13;6253963;28;20116;-79
2022/08/25 04:54:44;;;;;;;6.90;4.85;;;;;;;19.59;93.44;101668.00;6253140;28;20489;-79
2022/08/25 04:57:45;;;;;;;8.73;4.70;;;;;;;19.57;93.71;101665.44;6254610;28;20050;-80
2022/08/25 05:00:47;;;;;;;10.95;4.68;;;;;;;19.59;94.52;101662.66;6253406;28;20049;-79
2022/08/25 05:03:53;;;;;;;7.18;4.80;;;;;;;19.55;94.36;101671.88;6252899;28;20052;-80
2022/08/25 05:06:55;;;;;;;10.23;4.40;;;;;;;19.55;94.88;101672.72;6254166;28;20052;-80
2022/08/25 05:09:57;;;;;;;9.70;4.72;;;;;;;19.58;95.40;101675.16;6253946;28;20056;-79
2022/08/25 05:12:59;;;;;;;9.52;5.15;;;;;;;19.59;95.86;101679.50;6254601;28;20056;-80
2022/08/25 05:16:02;;;;;;;7.68;4.97;;;;;;;19.56;96.13;101674.41;6253216;28;20054;-80
2022/08/25 05:19:03;;;;;;;10.35;5.82;;;;;;;19.59;97.00;101681.34;6253955;28;20049;-80
2022/08/25 05:22:05;;;;;;;11.73;6.18;;;;;;;19.60;97.41;101675.03;6253308;28;20081;-79
2022/08/25 05:25:08;;;;;;;15.38;6.15;;;;;;;19.66;97.48;101674.56;6253207;28;20056;-80
2022/08/25 05:28:10;;;;;;;12.48;7.10;;;;;;;19.71;97.92;101681.28;6253642;28;20049;-80
2022/08/25 05:31:13;;;;;;;12.45;7.25;;;;;;;19.74;97.83;101677.50;6253363;28;20041;-80
2022/08/25 05:34:16;;;;;;;12.02;7.82;;;;;;;19.78;98.06;101670.97;6255272;28;20046;-80
2022/08/25 05:37:17;;;;;;;15.48;8.85;;;;;;;19.80;98.47;101668.19;6254623;28;20196;-80
2022/08/25 05:40:20;;;;;;;16.60;9.05;;;;;;;19.83;98.82;101671.47;6253010;28;20428;-80
2022/08/25 05:43:21;;;;;;;19.50;9.82;;;;;;;19.83;99.56;101660.78;6253852;28;20046;-80
2022/08/25 05:46:23;;;;;;;18.90;10.07;;;;;;;19.90;100.00;101669.19;6253223;28;20060;-79
2022/08/25 05:49:25;;;;;;;20.95;10.32;;;;;;;19.92;99.96;101661.91;6254041;28;20055;-80
2022/08/25 05:52:27;;;;;;;25.45;11.30;;;;;;;19.96;100.00;101669.53;6253751;28;20053;-79
2022/08/25 05:55:30;;;;;;;20.45;10.40;;;;;;;20.00;100.00;101663.00;6244519;28;20435;-80
2022/08/25 05:58:31;;;;;;;23.70;10.93;;;;;;;20.04;100.00;101660.94;6253718;28;20045;-79
2022/08/25 06:04:51;;;;;;;20.40;9.50;;;;;;;20.13;100.00;101662.03;6229110;28;20477;-80
2022/08/25 06:07:53;;;;;;;18.88;10.13;;;;;;;20.19;100.00;101653.53;6229594;28;20133;-80
2022/08/25 06:10:55;;;;;;;16.20;8.32;;;;;;;20.25;100.00;101655.72;6230252;28;20524;-80
2022/08/25 06:13:57;;;;;;;15.93;8.02;;;;;;;20.30;100.00;101650.00;6229213;28;20056;-79
2022/08/25 06:16:59;;;;;;;16.40;7.78;;;;;;;20.34;100.00;101648.78;6230449;28;20060;-77
2022/08/25 06:20:00;;;;;;;9.15;6.00;;;;;;;20.38;100.00;101653.75;6228661;28;20097;-79
2022/08/25 06:23:02;;;;;;;14.73;6.78;;;;;;;20.46;100.00;101647.81;6228713;28;20049;-79
2022/08/25 06:26:05;;;;;;;11.60;7.07;;;;;;;20.48;100.00;101654.78;6228465;28;20049;-79
2022/08/25 06:29:06;;;;;;;9.13;5.75;;;;;;;20.51;100.00;101654.50;6229033;28;20053;-79
2022/08/25 06:32:08;;;;;;;13.05;6.05;;;;;;;20.55;100.00;101657.78;6228189;28;20050;-79
2022/08/25 06:35:12;;;;;;;12.18;5.85;;;;;;;20.61;100.00;101643.91;6227411;28;20058;-80
2022/08/25 06:38:13;;;;;;;10.73;5.93;;;;;;;20.64;100.00;101651.69;6227971;28;20050;-79
2022/08/25 06:41:16;;;;;;;10.48;6.38;;;;;;;20.67;100.00;101651.44;6228558;28;20053;-79
2022/08/25 06:44:17;;;;;;;13.20;7.00;;;;;;;20.71;100.00;101649.34;6228374;28;20531;-79
2022/08/25 06:47:19;;;;;;;17.58;7.60;;;;;;;20.75;100.00;101648.13;6227373;28;20216;-79
2022/08/25 06:50:20;;;;;;;13.43;6.50;;;;;;;20.76;100.00;101645.34;6229114;28;20056;-79
2022/08/25 06:53:24;;;;;;;12.25;6.18;;;;;;;20.82;100.00;101648.50;6228530;28;20046;-80
2022/08/25 06:56:26;;;;;;;12.82;6.70;;;;;;;20.88;100.00;101646.16;6229298;28;20050;-79
2022/08/25 06:59:28;;;;;;;8.45;5.47;;;;;;;20.92;100.00;101652.09;6228727;28;20046;-79
2022/08/25 07:02:29;;;;;;;12.13;5.78;;;;;;;20.97;100.00;101647.22;6227779;28;20141;-79
2022/08/25 07:05:31;;;;;;;14.68;6.68;;;;;;;21.05;100.00;101643.91;6227880;28;20042;-79
2022/08/25 07:08:34;;;;;;;10.13;6.10;;;;;;;21.08;100.00;101641.00;6226185;28;20132;-79
2022/08/25 07:11:37;;;;;;;10.48;6.20;;;;;;;21.09;100.00;101635.50;6225690;28;20055;-79
2022/08/25 07:14:39;;;;;;;7.93;4.68;;;;;;;21.15;100.00;101629.63;6225656;28;20053;-79
2022/08/25 07:17:40;;;;;;;12.02;5.50;;;;;;;21.20;100.00;101630.09;6225992;28;20057;-78
2022/08/25 07:20:42;;;;;;;7.45;4.85;;;;;;;21.26;100.00;101634.09;6225225;28;20435;-79
2022/08/25 07:23:43;;;;;;;10.93;5.65;;;;;;;21.30;100.00;101635.50;6225606;28;20490;-79
2022/08/25 07:26:46;;;;;;;7.80;4.95;;;;;;;21.36;100.00;101635.03;6224955;28;20053;-78
2022/08/25 07:29:48;;;;;;;12.07;5.47;;;;;;;21.42;100.00;101644.38;6224492;28;20054;-79
2022/08/25 07:33:02;;;;;;;10.98;5.15;;;;;;;21.47;99.98;101640.31;6224465;28;20425;-80
2022/08/25 07:36:03;;;;;;;6.70;4.78;;;;;;;21.54;99.78;101643.34;6239073;28;20485;-80
2022/08/25 07:39:04;;;;;;;8.20;5.82;;;;;;;21.59;98.98;101640.25;6258813;28;20056;-81
2022/08/25 07:42:08;;;;;;;9.65;5.22;;;;;;;21.65;98.37;101640.56;6252757;28;20084;-80
2022/08/25 07:45:11;;;;;;;7.82;5.50;;;;;;;21.71;98.30;101652.56;6242852;28;20046;-80
2022/08/25 07:48:13;;;;;;;8.50;4.95;;;;;;;21.73;97.75;101643.44;6248925;28;20519;-79
2022/08/25 07:51:14;;;;;;;7.45;4.28;;;;;;;21.78;97.73;101648.41;6226171;28;20046;-80
2022/08/25 07:54:16;;;;;;;7.93;4.82;;;;;;;21.82;97.54;101647.16;6227584;28;20045;-80
2022/08/25 07:57:20;;;;;;;9.23;4.63;;;;;;;21.89;97.21;101651.00;6228341;28;20072;-79
2022/08/25 08:00:26;;;;;;;12.35;5.95;;;;;;;21.94;97.11;101651.44;6228214;28;20561;-80
2022/08/25 08:03:28;;;;;;;8.13;4.68;;;;;;;21.99;97.00;101651.03;6226728;28;20049;-80
2022/08/25 08:06:30;;;;;;;10.70;5.15;;;;;;;22.06;96.38;101646.84;6239281;28;20064;-80
2022/08/25 08:09:31;;;;;;;9.75;5.53;;;;;;;22.14;96.14;101640.84;6244705;28;20053;-80
2022/08/25 08:12:35;;;;;;;8.48;5.00;;;;;;;22.22;94.97;101638.34;6255785;28;20053;-80
2022/08/25 08:15:37;;;;;;;6.57;4.63;;;;;;;22.35;94.37;101644.31;6257952;28;20056;-81
2022/08/25 08:18:39;;;;;;;6.65;4.53;;;;;;;22.44;93.85;101645.31;6273839;28;20045;-83
2022/08/25 08:21:41;;;;;;;9.35;4.88;;;;;;;22.51;92.16;101636.59;6261512;28;20053;-81
2022/08/25 08:24:44;;;;;;;6.75;4.28;;;;;;;22.61;91.36;101641.97;6258844;28;20045;-81
2022/08/25 08:27:47;;;;;;;6.68;4.63;;;;;;;22.70;91.61;101629.56;6269522;28;20064;-85
2022/08/25 08:30:49;;;;;;;7.85;4.18;;;;;;;22.74;90.62;101629.16;6267381;28;20049;-85
2022/08/25 08:33:51;;;;;;;7.68;4.18;;;;;;;22.87;90.58;101630.72;6267052;28;20448;-81
2022/08/25 08:36:53;;;;;;;8.13;4.70;;;;;;;22.96;89.12;101636.09;6261409;28;20053;-81
2022/08/25 08:39:56;;;;;;;6.00;4.00;;;;;;;23.04;88.48;101624.69;6273944;28;20060;-81
2022/08/25 08:43:06;;;;;;;6.20;4.18;;;;;;;23.09;87.75;101616.22;6276738;28;20053;-84
2022/08/25 08:46:07;;;;;;;7.07;4.43;;;;;;;23.14;87.83;101606.75;6274925;28;20045;-81
2022/08/25 08:49:21;;;;;;;7.40;5.18;;;;;;;23.25;86.49;101611.94;6259314;28;20054;-79
2022/08/25 08:52:32;;;;;;;6.32;3.75;;;;;;;23.34;86.20;101614.75;6255807;28;20053;-79
2022/08/25 08:55:40;;;;;;;13.77;4.50;;;;;;;23.38;86.13;101611.66;6264310;28;20053;-81
2022/08/25 08:58:45;;;;;;;6.25;4.10;;;;;;;23.44;84.93;101604.88;6259846;28;20416;-83
2022/08/25 09:01:51;;;;;;;6.15;3.88;;;;;;;23.59;84.22;101610.63;6271239;28;20052;-80
2022/08/25 09:04:59;;;;;;;6.68;4.18;;;;;;;23.70;82.46;101611.31;6269362;28;20049;-79
2022/08/25 09:08:06;;;;;;;14.02;4.13;;;;;;;23.74;81.77;101606.50;6261424;28;20060;-80
2022/08/25 09:11:13;;;;;;;5.93;4.35;;;;;;;23.79;80.60;101594.34;6263576;28;20053;-81
2022/08/25 09:14:30;;;;;;;9.23;4.25;;;;;;;23.82;81.19;101595.06;6261930;28;20050;-81
2022/08/25 09:17:43;;;;;;;8.75;4.20;;;;;;;23.94;79.14;101597.41;6265928;28;20053;-78
2022/08/25 09:21:02;;;;;;;6.68;3.65;;;;;;;23.96;77.96;101595.41;6257187;28;20481;-79
2022/08/25 09:24:31;;;;;;;6.57;3.60;;;;;;;24.01;77.46;101593.13;6255153;28;20049;-78
2022/08/25 09:27:39;;;;;;;6.43;3.47;;;;;;;24.13;77.06;101582.19;6257354;28;20064;-78
2022/08/25 09:30:51;;;;;;;6.47;3.55;;;;;;;24.20;77.57;101588.63;6255549;28;20050;-79
2022/08/25 09:33:55;;;;;;;6.20;3.55;;;;;;;24.32;76.28;101578.53;6256003;28;20049;-79
2022/08/25 09:36:57;;;;;;;6.07;4.00;;;;;;;24.43;75.95;101578.34;6254966;28;20053;-78
2022/08/25 09:39:58;;;;;;;7.88;3.63;;;;;;;24.52;74.99;101577.44;6251814;28;20060;-78
2022/08/25 09:43:04;;;;;;;6.25;3.45;;;;;;;24.65;74.63;101572.53;6234661;28;20523;-79
2022/08/25 09:46:13;;;;;;;9.00;4.35;;;;;;;24.80;73.60;101564.78;6234277;28;20046;-80
2022/08/25 09:49:15;;;;;;;5.55;3.53;;;;;;;24.85;73.16;101562.47;6242577;28;20046;-79
2022/08/25 09:52:38;;;;;;;4.47;3.40;;;;;;;24.84;73.09;101566.13;6243378;28;20054;-78
2022/08/25 09:55:41;;;;;;;4.07;2.80;;;;;;;24.90;72.09;101565.53;6232953;28;20046;-78
2022/08/25 09:58:43;;;;;;;8.55;3.70;;;;;;;25.02;71.85;101564.25;6236094;28;20046;-78
2022/08/25 10:01:50;;;;;;;5.43;3.42;;;;;;;24.99;70.89;101551.16;6242068;28;20061;-80
2022/08/25 10:04:51;;;;;;;5.47;3.30;;;;;;;25.01;71.92;101548.28;6251285;28;20429;-79
2022/08/25 10:07:57;;;;;;;4.78;3.35;;;;;;;25.20;71.42;101548.13;6266311;28;20049;-79
2022/08/25 10:11:01;;;;;;;5.18;3.38;;;;;;;25.28;70.99;101542.81;6264157;28;20041;-79
2022/08/25 10:14:06;;;;;;;6.95;3.67;;;;;;;25.35;70.21;101534.13;6255562;28;20057;-77
2022/08/25 10:17:15;;;;;;;6.38;3.83;;;;;;;25.35;70.05;101526.03;6256227;28;20052;-78
2022/08/25 10:20:20;;;;;;;9.00;3.90;;;;;;;25.53;69.69;101524.13;6234546;28;20054;-79
2022/08/25 10:23:27;;;;;;;7.00;3.38;;;;;;;25.68;68.15;101519.81;6234574;28;20417;-79
2022/08/25 10:26:37;;;;;;;4.90;3.20;;;;;;;25.76;67.36;101508.28;6233410;28;20053;-79
2022/08/25 10:29:56;;;;;;;6.50;3.45;;;;;;;25.92;65.46;101508.31;6236118;28;20057;-78
2022/08/25 10:33:17;;;;;;;5.75;3.15;;;;;;;25.98;66.03;101504.97;6230793;28;20054;-78
2022/08/25 10:36:21;;;;;;;4.03;2.80;;;;;;;26.06;66.55;101504.13;6233587;28;20046;-79
2022/08/25 10:39:38;;;;;;;7.60;3.20;;;;;;;26.27;65.04;101501.84;6237954;28;20054;-81
2022/08/25 10:42:58;;;;;;;6.28;3.25;;;;;;;26.42;64.84;101485.84;6245194;28;20133;-81
2022/08/25 10:46:09;;;;;;;5.70;3.67;;;;;;;26.41;63.32;101472.53;6236202;28;20060;-79
2022/08/25 10:49:18;;;;;;;5.32;3.47;;;;;;;26.26;63.78;101464.28;6231883;28;20064;-78
2022/08/25 10:52:26;;;;;;;4.07;3.17;;;;;;;26.16;64.49;101461.75;6233134;28;20056;-79
2022/08/25 10:55:39;;;;;;;9.68;3.58;;;;;;;26.31;64.23;101457.38;6228613;28;20042;-77
2022/08/25 10:58:56;;;;;;;3.40;2.97;;;;;;;26.34;63.84;101449.94;6231619;28;20046;-79
2022/08/25 11:02:26;;;;;;;4.50;3.22;;;;;;;26.49;64.33;101451.84;6234453;28;20045;-78
2022/08/25 11:05:35;;;;;;;5.43;3.35;;;;;;;26.66;62.81;101447.31;6234016;28;20047;-80
2022/08/25 11:08:41;;;;;;;8.15;4.10;;;;;;;26.58;63.35;101444.59;6250086;28;20053;-80
2022/08/25 11:11:50;;;;;;;6.10;3.30;;;;;;;26.43;63.42;101448.94;6254001;28;20053;-80
2022/08/25 11:14:56;;;;;;;6.57;3.13;;;;;;;26.37;62.89;101445.06;6258169;28;20063;-80
2022/08/25 11:18:03;;;;;;;5.45;3.30;;;;;;;26.72;63.56;101445.78;6251778;28;20061;-79
2022/08/25 11:21:12;;;;;;;6.75;3.10;;;;;;;27.06;62.37;101438.25;6231575;28;20057;-81
2022/08/25 11:24:22;;;;;;;;;;;;;;;27.01;61.07;101443.34;6234636;28;20065;-78
2022/08/25 11:27:32;;;;;;;5.53;3.10;;;;;;;26.81;61.34;101436.66;6233121;28;19921;-79
2022/08/25 11:30:34;;;;;;;8.68;3.75;;;;;;;26.67;60.86;101431.97;6233220;28;20046;-81
2022/08/25 11:33:37;;;;;;;4.38;2.63;;;;;;;26.67;61.19;101427.41;6233861;28;20050;-81
2022/08/25 11:36:42;;;;;;;4.28;2.90;;;;;;;26.86;60.20;101422.66;6232973;28;20050;-80
2022/08/25 11:40:16;;;;;;;3.72;3.13;;;;;;;27.09;59.43;101415.53;6233052;28;20045;-80
2022/08/25 11:43:33;;;;;;;4.97;2.90;;;;;;;27.55;58.52;101412.97;6257835;28;20056;-79
2022/08/25 11:46:47;;;;;;;5.82;2.85;;;;;;;27.51;57.68;101408.94;6258298;28;20045;-79
2022/08/25 11:49:52;;;;;;;4.00;3.40;;;;;;;27.39;57.99;101416.63;6258160;28;20057;-80
2022/08/25 11:52:56;;;;;;;3.95;2.80;;;;;;;27.50;58.23;101404.56;6258234;28;20060;-82
2022/08/25 11:56:03;;;;;;;8.55;3.65;;;;;;;27.48;57.37;101406.59;6244834;28;20045;-80
2022/08/25 11:59:05;;;;;;;3.63;2.83;;;;;;;27.79;56.60;101402.06;6241506;28;20512;-80
2022/08/25 12:02:07;;;;;;;4.88;2.47;;;;;;;28.28;55.01;101392.75;6228324;28;20486;-80
2022/08/25 12:05:11;;;;;;;5.50;3.20;;;;;;;28.68;53.32;101391.56;6227706;28;20042;-80
2022/08/25 12:11:55;;;;;;;4.07;3.10;;;;;;;29.00;51.70;101390.38;6238220;28;20037;-82
2022/08/25 12:15:15;;;;;;;3.65;2.50;;;;;;;29.18;50.57;101384.59;6240163;28;20050;-79
2022/08/25 12:18:43;;;;;;;3.90;2.72;;;;;;;29.34;50.06;101380.81;6242615;28;20080;-80
2022/08/25 12:21:45;;;;;;;3.78;2.40;;;;;;;29.00;50.49;101379.56;6240345;28;20157;-80
2022/08/25 12:24:54;;;;;;;6.65;2.92;;;;;;;28.67;51.33;101375.53;6239562;28;20046;-80
2022/08/25 12:28:05;;;;;;;3.97;2.55;;;;;;;28.28;51.89;101373.81;6256328;28;20056;-80
2022/08/25 12:31:17;;;;;;;6.95;3.05;;;;;;;28.12;52.35;101368.56;6253816;28;20049;-80
2022/08/25 12:34:43;;;;;;;4.55;2.70;;;;;;;28.71;51.54;101363.31;6238810;28;20424;-82
2022/08/25 12:37:57;;;;;;;4.65;2.80;;;;;;;29.41;49.16;101356.53;6230615;28;20513;-79
2022/08/25 12:41:04;;;;;;;4.78;2.78;;;;;;;29.52;48.03;101358.72;6234610;28;20049;-80
2022/08/25 12:44:19;;;;;;;5.03;3.30;;;;;;;29.53;48.29;101358.56;6242205;28;20482;-81
2022/08/25 12:47:31;;;;;;;4.82;3.10;;;;;;;30.06;47.42;101355.56;6247569;28;20042;-81
2022/08/25 12:50:39;;;;;;;5.45;3.08;;;;;;;30.40;46.90;101341.28;6267506;28;20081;-82
2022/08/25 12:53:44;;;;;;;4.90;2.95;;;;;;;30.48;47.00;101351.97;6248584;28;20049;-84
2022/08/25 12:56:52;;;;;;;3.80;2.78;;;;;;;30.30;45.55;101352.47;6243776;28;20052;-79
2022/08/25 12:59:56;;;;;;;4.43;2.65;;;;;;;30.08;46.57;101343.50;6245011;28;20041;-80
2022/08/25 13:03:26;;;;;;;5.00;2.63;;;;;;;29.76;46.49;101344.03;6252375;28;20056;-80
2022/08/25 13:06:42;;;;;;;4.57;2.90;;;;;;;29.97;46.58;101340.47;6254586;28;20065;-81
2022/08/25 13:10:18;;;;;;;3.92;2.72;;;;;;;29.80;46.98;101326.34;6239035;28;20054;-83
2022/08/25 13:13:39;;;;;;;6.93;3.78;;;;;;;29.68;48.10;101319.78;6236274;28;20509;-80
2022/08/25 13:16:51;;;;;;;4.57;2.97;;;;;;;29.96;47.65;101333.38;6244103;28;20075;-81
2022/08/25 13:20:10;;;;;;;8.30;3.47;;;;;;;29.93;45.92;101333.75;6243084;28;20061;-81
2022/08/25 13:23:12;;;;;;;3.72;3.03;;;;;;;29.84;46.90;101327.63;6235374;28;20429;-78
2022/08/25 13:26:15;;;;;;;4.50;2.75;;;;;;;30.24;46.26;101328.00;6227075;28;20051;-77
2022/08/25 13:29:22;;;;;;;7.45;3.00;;;;;;;30.72;45.68;101328.16;6226346;28;20057;-77
2022/08/25 13:32:30;;;;;;;3.03;2.40;;;;;;;31.15;43.37;101320.59;6226935;28;20061;-77
2022/08/25 13:35:32;;;;;;;3.88;2.53;;;;;;;31.56;43.07;101315.09;6229110;28;20386;-77
2022/08/25 13:38:32;;;;;;;8.68;2.83;;;;;;;31.72;41.73;101303.00;6239137;28;20082;-76
2022/08/25 13:41:34;;;;;;;4.43;2.97;;;;;;;31.81;41.75;101298.22;6242304;28;20096;-78
2022/08/25 13:44:38;;;;;;;3.70;2.75;;;;;;;31.90;41.31;101298.88;6250732;28;20389;-77
2022/08/25 13:47:41;;;;;;;4.68;3.03;;;;;;;32.01;40.75;101292.78;6250873;28;20057;-78
2022/08/25 13:50:43;;;;;;;5.32;2.88;;;;;;;32.18;40.48;101288.59;6243872;28;20506;-77
2022/08/25 13:53:54;;;;;;;5.20;2.97;;;;;;;32.39;41.07;101284.00;6242171;28;20049;-77
2022/08/25 13:57:05;;;;;;;2.22;2.03;;;;;;;32.10;40.96;101282.53;6246456;28;20053;-77
2022/08/25 14:00:10;;;;;;;4.13;2.10;;;;;;;32.36;40.86;101277.06;6241626;28;20057;-77
2022/08/25 14:03:30;;;;;;;2.38;2.13;;;;;;;32.64;39.79;101275.97;6232206;28;20077;-78
2022/08/25 14:06:32;;;;;;;3.92;2.65;;;;;;;32.71;39.74;101280.34;6240780;28;20123;-77
2022/08/25 14:09:40;;;;;;;3.90;2.40;;;;;;;32.43;39.60;101272.50;6242579;28;20088;-77
2022/08/25 14:12:44;;;;;;;4.80;2.65;;;;;;;32.55;39.05;101269.94;6250469;28;20076;-77
2022/08/25 14:15:47;;;;;;;4.22;2.47;;;;;;;32.27;39.36;101259.28;6238813;28;20050;-77
2022/08/25 14:18:52;;;;;;;4.97;2.50;;;;;;;32.31;39.45;101255.09;6250626;28;20128;-77
2022/08/25 14:21:57;;;;;;;2.95;2.20;;;;;;;32.63;38.97;101252.53;6234320;28;20060;-78
2022/08/25 14:24:59;;;;;;;5.95;2.45;;;;;;;32.62;37.97;101248.16;6236368;28;20041;-79
2022/08/25 14:28:02;;;;;;;2.92;2.33;;;;;;;32.63;38.49;101247.09;6236476;28;20057;-78